Time;durP1;ratioP1;P1;durP2;ratioP2;P2;SDS_P1;SDS_P2;PMS_P1;PMS_P2;Temp;Humidity;BMP_temperature;BMP_pressure;BME280_temperature;BME280_humidity;BME280_pressure;Samples;Min_cycle;Max_cycle;Signal;HPM_P1;HPM_P2
2022/05/12 00:02:12;;;;;;;7.55;5.28;;;;;;;10.37;93.21;93628.56;5091319;28;20067;-88
2022/05/12 00:04:39;;;;;;;11.50;6.53;;;;;;;10.28;93.90;93620.25;5091314;28;20048;-88
2022/05/12 00:07:07;;;;;;;9.90;6.30;;;;;;;10.28;93.93;93621.03;5091594;28;20052;-88
2022/05/12 00:09:35;;;;;;;9.18;6.13;;;;;;;10.26;93.15;93624.78;5091477;28;20056;-87
2022/05/12 00:12:05;;;;;;;11.10;5.97;;;;;;;10.32;93.46;93623.22;5090237;28;20059;-88
2022/05/12 00:14:32;;;;;;;9.13;6.25;;;;;;;10.31;92.86;93624.97;5080502;28;20048;-88
2022/05/12 00:16:59;;;;;;;9.48;6.22;;;;;;;10.22;93.78;93626.16;5079950;28;20040;-88
2022/05/12 00:19:29;;;;;;;9.05;7.07;;;;;;;10.16;94.55;93623.41;5080333;28;20044;-88
2022/05/12 00:21:56;;;;;;;9.95;7.40;;;;;;;10.01;96.18;93615.88;5070962;28;20060;-88
2022/05/12 00:24:24;;;;;;;11.20;7.35;;;;;;;9.96;96.86;93617.44;5070891;28;20048;-88
2022/05/12 00:26:51;;;;;;;11.93;8.25;;;;;;;10.07;95.94;93621.22;5071102;28;20049;-88
2022/05/12 00:29:17;;;;;;;12.43;8.18;;;;;;;10.05;95.20;93629.13;5071041;28;20056;-88
2022/05/12 00:31:46;;;;;;;12.35;9.10;;;;;;;10.00;95.79;93631.47;5070932;28;20044;-89
2022/05/12 00:34:14;;;;;;;16.92;10.25;;;;;;;9.95;95.60;93624.34;5070903;28;20052;-86
2022/05/12 00:36:43;;;;;;;19.27;10.98;;;;;;;9.93;95.74;93628.91;5070902;28;20060;-86
2022/05/12 00:39:10;;;;;;;20.50;11.63;;;;;;;9.87;94.75;93611.72;5070456;28;20048;-86
2022/05/12 00:41:37;;;;;;;21.67;12.73;;;;;;;9.91;95.42;93622.38;5079952;28;20040;-87
2022/05/12 00:44:06;;;;;;;19.90;11.90;;;;;;;9.93;95.31;93622.97;5090841;28;20482;-86
2022/05/12 00:46:36;;;;;;;20.75;12.45;;;;;;;9.87;94.86;93609.94;5090897;28;20047;-86
2022/05/12 00:49:06;;;;;;;22.63;12.63;;;;;;;9.94;95.01;93616.84;5090998;28;20043;-88
2022/05/12 00:51:38;;;;;;;24.08;12.75;;;;;;;9.91;94.70;93618.06;5090899;28;20044;-89
2022/05/12 00:54:13;;;;;;;23.02;12.98;;;;;;;9.92;94.44;93616.25;5090951;28;20048;-88
2022/05/12 00:56:40;;;;;;;22.48;12.85;;;;;;;9.86;95.16;93620.41;5090916;28;20083;-88
2022/05/12 00:59:11;;;;;;;22.88;9.43;;;;;;;9.80;96.49;93618.59;5083794;28;20126;-88
2022/05/12 01:01:39;;;;;;;11.07;6.82;;;;;;;9.76;98.95;93618.19;5070832;28;20067;-89
2022/05/12 01:04:06;;;;;;;10.27;7.15;;;;;;;9.70;98.69;93618.97;5070701;28;20631;-88
2022/05/12 01:06:33;;;;;;;10.23;6.88;;;;;;;9.69;99.42;93618.19;5070632;28;20386;-88
2022/05/12 01:09:01;;;;;;;10.65;6.38;;;;;;;9.65;99.27;93619.56;5072076;28;20041;-88
2022/05/12 01:11:29;;;;;;;12.43;7.68;;;;;;;9.59;99.35;93617.78;5074676;28;20045;-88
2022/05/12 01:14:00;;;;;;;15.35;8.77;;;;;;;9.59;99.63;93610.84;5074652;28;20057;-88
2022/05/12 01:16:41;;;;;;;20.70;11.10;;;;;;;9.55;100.00;93617.38;5074881;28;20083;-88
2022/05/12 01:19:12;;;;;;;18.92;10.48;;;;;;;8.99;99.07;93542.25;5074512;28;20557;-88
2022/05/12 01:21:40;;;;;;;16.95;9.35;;;;;;;9.44;99.40;93605.88;5074284;28;20052;-88
2022/05/12 01:24:09;;;;;;;19.45;10.68;;;;;;;9.48;100.00;93629.38;5074769;28;20070;-89
2022/05/12 01:26:36;;;;;;;20.95;10.20;;;;;;;9.27;99.53;93587.50;5074638;28;20049;-88
2022/05/12 01:29:04;;;;;;;18.77;11.50;;;;;;;9.52;98.93;93622.88;5074308;28;20041;-88
2022/05/12 01:31:31;;;;;;;19.75;10.73;;;;;;;9.54;98.88;93620.91;5074237;28;20044;-88
2022/05/12 01:33:58;;;;;;;17.88;10.85;;;;;;;9.47;97.83;93617.53;5074318;28;20049;-88
2022/05/12 01:36:25;;;;;;;18.50;9.93;;;;;;;9.48;97.16;93624.22;5087932;28;20040;-88
2022/05/12 01:38:52;;;;;;;18.58;10.40;;;;;;;9.46;98.00;93628.78;5094950;28;20048;-87
2022/05/12 01:41:20;;;;;;;16.90;9.25;;;;;;;9.43;98.57;93629.16;5094085;28;20494;-89
2022/05/12 01:43:47;;;;;;;17.40;9.23;;;;;;;9.39;97.84;93628.75;5094273;28;20055;-88
2022/05/12 01:46:15;;;;;;;17.70;10.38;;;;;;;9.35;98.33;93630.09;5094298;28;20040;-88
2022/05/12 01:48:42;;;;;;;18.48;11.52;;;;;;;9.24;98.81;93621.19;5094148;28;20044;-88
2022/05/12 01:51:09;;;;;;;18.58;11.75;;;;;;;9.29;98.78;93631.66;5094350;28;20047;-88
2022/05/12 01:53:37;;;;;;;19.27;12.32;;;;;;;9.25;99.50;93633.03;5094174;28;20123;-87
2022/05/12 01:56:06;;;;;;;20.10;11.93;;;;;;;9.16;99.84;93629.84;5094232;28;20055;-88
2022/05/12 01:58:34;;;;;;;19.88;10.68;;;;;;;9.08;99.63;93623.09;5073984;28;20051;-88
2022/05/12 02:01:01;;;;;;;17.83;11.20;;;;;;;9.09;100.00;93632.34;5074276;28;20052;-88
2022/05/12 02:03:28;;;;;;;18.17;11.77;;;;;;;9.12;100.00;93640.66;5073822;28;20040;-88
2022/05/12 02:05:55;;;;;;;16.15;10.27;;;;;;;9.07;100.00;93625.84;5073628;28;20403;-87
2022/05/12 02:08:22;;;;;;;16.02;10.32;;;;;;;9.07;100.00;93636.88;5077677;28;20051;-88
2022/05/12 02:10:51;;;;;;;15.82;9.57;;;;;;;9.01;100.00;93635.09;5073620;28;20517;-89
2022/05/12 02:13:20;;;;;;;11.75;8.20;;;;;;;8.93;100.00;93648.03;5073652;28;20047;-88
2022/05/12 02:15:49;;;;;;;14.10;8.50;;;;;;;8.85;100.00;93633.63;5077814;28;20036;-87
2022/05/12 02:18:18;;;;;;;15.75;9.43;;;;;;;8.90;100.00;93649.22;5082295;28;20097;-88
2022/05/12 02:20:45;;;;;;;14.63;9.15;;;;;;;8.88;100.00;93642.72;5083194;28;20359;-87
2022/05/12 02:23:12;;;;;;;11.75;7.55;;;;;;;8.90;100.00;93643.31;5081529;28;20051;-87
2022/05/12 02:25:39;;;;;;;9.43;6.85;;;;;;;8.84;100.00;93649.19;5083302;28;20040;-89
2022/05/12 02:28:06;;;;;;;9.25;5.32;;;;;;;8.71;100.00;93637.06;5083248;28;20398;-88
2022/05/12 02:30:33;;;;;;;6.30;5.03;;;;;;;8.55;100.00;93646.63;5084845;28;20044;-87
2022/05/12 02:33:02;;;;;;;6.88;5.32;;;;;;;8.49;100.00;93643.00;5083501;28;20032;-86
2022/05/12 02:35:30;;;;;;;6.80;5.30;;;;;;;8.55;100.00;93647.41;5083391;28;20045;-87
2022/05/12 02:37:57;;;;;;;8.43;5.78;;;;;;;8.60;100.00;93648.63;5081828;28;20036;-86
2022/05/12 02:40:28;;;;;;;8.75;5.88;;;;;;;8.61;100.00;93637.41;5082459;28;20044;-86
2022/05/12 02:42:56;;;;;;;8.45;5.78;;;;;;;8.60;100.00;93644.28;5083198;28;20059;-86
2022/05/12 02:45:23;;;;;;;9.00;6.13;;;;;;;8.67;100.00;93641.78;5082676;28;20068;-87
2022/05/12 02:47:50;;;;;;;9.55;5.30;;;;;;;8.70;100.00;93646.50;5081483;28;20470;-87
2022/05/12 02:50:19;;;;;;;7.68;5.80;;;;;;;8.72;100.00;93639.44;5081609;28;20391;-87
2022/05/12 02:52:46;;;;;;;8.10;4.95;;;;;;;8.70;100.00;93646.50;5082016;28;20047;-88
2022/05/12 02:55:14;;;;;;;8.35;5.15;;;;;;;8.71;100.00;93655.00;5083277;28;20040;-87
2022/05/12 02:57:41;;;;;;;10.13;4.88;;;;;;;8.71;100.00;93645.56;5081787;28;20041;-87
2022/05/12 03:00:13;;;;;;;8.13;4.75;;;;;;;8.64;100.00;93639.59;5081717;28;20386;-87
2022/05/12 03:02:39;;;;;;;7.40;4.75;;;;;;;8.68;100.00;93656.16;5081439;28;20040;-87
2022/05/12 03:05:07;;;;;;;6.43;4.32;;;;;;;8.72;99.79;93646.34;5081854;28;20043;-87
2022/05/12 03:07:35;;;;;;;6.95;4.10;;;;;;;8.66;100.00;93646.09;5083054;28;20036;-86
2022/05/12 03:10:02;;;;;;;5.38;4.18;;;;;;;8.65;100.00;93643.72;5081765;28;20401;-86
2022/05/12 03:12:30;;;;;;;6.18;4.88;;;;;;;8.64;100.00;93650.63;5081401;28;20500;-87
2022/05/12 03:14:57;;;;;;;8.18;4.68;;;;;;;8.60;100.00;93651.19;5081165;28;20044;-87
2022/05/12 03:17:23;;;;;;;7.78;4.97;;;;;;;8.54;100.00;93658.63;5082096;28;20486;-86
2022/05/12 03:19:50;;;;;;;8.02;5.70;;;;;;;8.55;100.00;93655.09;5082990;28;20044;-88
2022/05/12 03:22:17;;;;;;;6.47;4.60;;;;;;;8.54;100.00;93653.53;5081075;28;20051;-87
2022/05/12 03:24:45;;;;;;;8.23;4.85;;;;;;;8.36;100.00;93640.34;5082606;28;20047;-88
2022/05/12 03:27:13;;;;;;;7.47;4.65;;;;;;;8.46;100.00;93658.72;5085403;28;20108;-86
2022/05/12 03:29:40;;;;;;;11.38;5.05;;;;;;;8.42;100.00;93660.88;5085513;28;20047;-87
2022/05/12 03:32:10;;;;;;;11.38;5.40;;;;;;;8.46;100.00;93665.63;5081643;28;20040;-87
2022/05/12 03:34:37;;;;;;;10.60;5.88;;;;;;;8.45;100.00;93662.28;5083217;28;20039;-86
2022/05/12 03:37:04;;;;;;;10.43;5.53;;;;;;;8.52;100.00;93670.03;5082737;28;20040;-88
2022/05/12 03:39:31;;;;;;;9.60;5.05;;;;;;;8.46;100.00;93663.84;5080599;28;20055;-86
2022/05/12 03:41:59;;;;;;;10.30;4.93;;;;;;;8.39;100.00;93650.22;5081464;28;20036;-87
2022/05/12 03:47:12;;;;;;;8.45;5.25;;;;;;;8.39;100.00;93663.00;5082925;28;20566;-87
2022/05/12 03:49:39;;;;;;;10.68;5.90;;;;;;;8.52;100.00;93682.84;5081008;28;20052;-88
2022/05/12 03:52:06;;;;;;;10.60;5.57;;;;;;;8.59;100.00;93680.31;5081345;28;20043;-87
2022/05/12 03:54:33;;;;;;;8.60;5.57;;;;;;;8.65;100.00;93684.69;5082329;28;20094;-87
2022/05/12 03:57:02;;;;;;;12.00;5.85;;;;;;;8.67;100.00;93690.44;5080760;28;20044;-87
2022/05/12 03:59:29;;;;;;;13.75;7.25;;;;;;;8.71;100.00;93685.72;5080500;28;20048;-87
2022/05/12 04:01:56;;;;;;;11.75;5.72;;;;;;;8.79;100.00;93691.50;5081800;28;20505;-86
2022/05/12 04:04:23;;;;;;;11.82;6.25;;;;;;;8.66;100.00;93673.50;5080647;28;20036;-87
2022/05/12 04:06:50;;;;;;;11.48;6.70;;;;;;;8.85;100.00;93702.78;5080247;28;20036;-88
2022/05/12 04:09:17;;;;;;;8.95;5.80;;;;;;;8.92;100.00;93702.81;5079839;28;20044;-87
2022/05/12 04:11:43;;;;;;;11.68;6.22;;;;;;;8.99;100.00;93702.88;5078504;28;20497;-87
2022/05/12 04:14:12;;;;;;;9.70;5.70;;;;;;;9.07;100.00;93707.84;5079939;28;20036;-85
2022/05/12 04:16:39;;;;;;;12.30;8.05;;;;;;;9.16;100.00;93709.28;5079558;28;20478;-85
2022/05/12 04:19:06;;;;;;;11.57;8.50;;;;;;;9.08;100.00;93688.94;5080602;28;20044;-85
2022/05/12 04:21:34;;;;;;;14.32;8.93;;;;;;;9.32;100.00;93709.97;5081564;28;20497;-84
2022/05/12 04:24:01;;;;;;;14.75;9.65;;;;;;;9.42;100.00;93701.94;5080271;28;20464;-85
2022/05/12 04:26:29;;;;;;;9.18;6.20;;;;;;;9.50;100.00;93706.91;5080057;28;20098;-85
2022/05/12 04:28:55;;;;;;;10.05;6.95;;;;;;;9.58;100.00;93696.47;5081484;28;20375;-85
2022/05/12 04:31:23;;;;;;;10.05;5.95;;;;;;;9.74;100.00;93705.63;5080068;28;20048;-85
2022/05/12 04:36:36;;;;;;;12.32;6.60;;;;;;;9.91;100.00;93699.38;5081575;28;20051;-85
2022/05/12 04:39:03;;;;;;;12.95;6.15;;;;;;;9.85;100.00;93701.72;5080124;28;20187;-86
2022/05/12 04:41:30;;;;;;;9.73;5.82;;;;;;;9.92;100.00;93711.19;5079610;28;20090;-87
2022/05/12 04:43:58;;;;;;;9.73;5.93;;;;;;;9.79;100.00;93699.91;5078652;28;20053;-86
2022/05/12 04:46:28;;;;;;;9.48;7.25;;;;;;;9.65;100.00;93690.56;5080352;28;20085;-86
2022/05/12 04:48:54;;;;;;;11.55;6.63;;;;;;;9.85;100.00;93711.16;5081483;28;20040;-85
2022/05/12 04:51:22;;;;;;;8.65;6.53;;;;;;;9.94;100.00;93707.47;5079947;28;20044;-86
2022/05/12 04:53:49;;;;;;;11.40;7.57;;;;;;;10.05;100.00;93705.31;5079539;28;20044;-87
2022/05/12 04:56:16;;;;;;;11.77;7.00;;;;;;;10.11;100.00;93695.06;5081066;28;20048;-87
2022/05/12 04:58:43;;;;;;;10.70;7.18;;;;;;;10.50;100.00;93712.53;5080280;28;20045;-87
2022/05/12 05:01:10;;;;;;;11.73;6.88;;;;;;;10.82;100.00;93716.09;5079270;28;20040;-87
2022/05/12 05:03:38;;;;;;;10.82;7.43;;;;;;;11.09;99.73;93716.09;5082018;28;20054;-87
2022/05/12 05:06:05;;;;;;;13.45;7.85;;;;;;;11.13;98.70;93689.97;5090910;28;20032;-88
2022/05/12 05:08:32;;;;;;;11.40;8.38;;;;;;;11.62;93.62;93727.25;5090788;28;20048;-88
2022/05/12 05:10:59;;;;;;;14.52;9.25;;;;;;;11.89;94.42;93716.06;5090370;28;20052;-88
2022/05/12 05:13:26;;;;;;;16.85;10.02;;;;;;;12.02;95.48;93715.19;5091358;28;20044;-87
2022/05/12 05:15:54;;;;;;;19.17;10.15;;;;;;;11.94;95.00;93692.28;5090905;28;20043;-87
2022/05/12 05:18:22;;;;;;;18.45;10.88;;;;;;;12.14;90.37;93682.69;5090663;28;20040;-88
2022/05/12 05:20:51;;;;;;;16.98;9.52;;;;;;;12.54;89.36;93712.56;5090713;28;20047;-86
2022/05/12 05:23:21;;;;;;;16.85;10.18;;;;;;;12.50;92.18;93715.78;5090505;28;20051;-87
2022/05/12 05:25:48;;;;;;;18.08;10.40;;;;;;;12.49;94.64;93711.63;5090838;28;20133;-86
2022/05/12 05:28:15;;;;;;;16.98;10.43;;;;;;;12.32;95.27;93711.31;5090619;28;20051;-87
2022/05/12 05:30:42;;;;;;;20.10;10.40;;;;;;;12.31;95.09;93705.38;5090759;28;20051;-87
2022/05/12 05:33:09;;;;;;;17.58;10.32;;;;;;;12.22;96.52;93711.78;5090748;28;20075;-86
2022/05/12 05:35:35;;;;;;;16.80;9.73;;;;;;;12.48;94.99;93715.97;5090602;28;20047;-87
2022/05/12 05:38:04;;;;;;;19.88;9.98;;;;;;;12.67;94.96;93716.03;5090419;28;20067;-87
2022/05/12 05:40:31;;;;;;;15.02;10.75;;;;;;;12.85;95.81;93714.50;5090504;28;20051;-87
2022/05/12 05:42:59;;;;;;;19.13;10.43;;;;;;;13.20;92.08;93714.78;5090513;28;20067;-87
2022/05/12 05:45:27;;;;;;;20.27;9.65;;;;;;;13.57;90.91;93718.44;5090531;28;20051;-87
2022/05/12 05:47:58;;;;;;;15.50;8.93;;;;;;;13.73;89.92;93719.66;5090304;28;20055;-87
2022/05/12 05:50:28;;;;;;;18.20;8.68;;;;;;;13.57;87.62;93700.38;5090290;28;20540;-86
2022/05/12 05:55:41;;;;;;;21.27;8.37;;;;;;;14.22;86.08;93717.06;5092974;28;20066;-87
2022/05/12 05:58:10;;;;;;;16.60;8.50;;;;;;;13.73;88.27;93717.06;5093992;28;20048;-87
2022/05/12 06:00:37;;;;;;;16.95;9.25;;;;;;;13.93;89.46;93711.66;5094616;28;20066;-86
2022/05/12 06:03:05;;;;;;;12.85;8.23;;;;;;;14.51;86.47;93709.50;5093730;28;20048;-87
2022/05/12 06:05:33;;;;;;;18.77;8.65;;;;;;;14.91;86.22;93713.28;5094241;28;20044;-86
2022/05/12 06:08:00;;;;;;;21.10;8.85;;;;;;;15.50;82.27;93720.28;5093920;28;20485;-86
2022/05/12 06:10:27;;;;;;;15.52;8.35;;;;;;;16.11;78.12;93720.94;5093879;28;20048;-87
2022/05/12 06:12:56;;;;;;;19.27;7.28;;;;;;;16.31;77.21;93712.75;5094186;28;20374;-87
2022/05/12 06:15:25;;;;;;;21.20;8.20;;;;;;;16.74;73.31;93714.97;5093679;28;20040;-86
2022/05/12 06:17:52;;;;;;;23.00;8.32;;;;;;;16.93;70.80;93710.34;5093752;28;20036;-86
2022/05/12 06:20:19;;;;;;;17.10;8.77;;;;;;;17.07;69.98;93714.22;5093674;28;20052;-85
2022/05/12 06:22:46;;;;;;;21.00;8.05;;;;;;;17.40;68.23;93711.81;5093681;28;20047;-87
2022/05/12 06:25:15;;;;;;;15.52;8.48;;;;;;;17.83;66.94;93713.91;5093550;28;20451;-86
2022/05/12 06:27:42;;;;;;;13.65;7.55;;;;;;;18.10;66.33;93706.16;5093567;28;20042;-86
2022/05/12 06:30:12;;;;;;;17.27;8.18;;;;;;;17.88;63.47;93704.34;5093252;28;20036;-86
2022/05/12 06:32:39;;;;;;;14.50;6.90;;;;;;;18.48;63.13;93710.69;5093487;28;20131;-86
2022/05/12 06:35:08;;;;;;;14.57;6.90;;;;;;;18.73;61.28;93701.50;5093327;28;20121;-85
2022/05/12 06:37:35;;;;;;;15.98;6.60;;;;;;;19.05;59.41;93716.38;5093460;28;20056;-85
2022/05/12 06:40:02;;;;;;;13.68;6.53;;;;;;;19.40;60.53;93707.22;5093346;28;20067;-86
2022/05/12 06:42:29;;;;;;;18.85;6.93;;;;;;;19.63;58.99;93710.47;5093260;28;20071;-85
2022/05/12 06:44:56;;;;;;;12.90;6.10;;;;;;;20.05;58.24;93706.22;5093474;28;20044;-86
2022/05/12 06:47:24;;;;;;;18.40;6.05;;;;;;;20.30;56.37;93707.28;5093066;28;20055;-86
2022/05/12 06:49:52;;;;;;;15.73;5.32;;;;;;;19.75;57.26;93703.22;5093327;28;20044;-86
2022/05/12 06:52:20;;;;;;;11.73;5.22;;;;;;;20.09;55.41;93706.47;5093006;28;20048;-86
2022/05/12 06:54:47;;;;;;;17.58;6.68;;;;;;;20.75;55.99;93693.78;5093162;28;20040;-86
2022/05/12 06:57:20;;;;;;;10.18;5.10;;;;;;;21.33;54.50;93695.28;5092760;28;20047;-86
2022/05/12 06:59:46;;;;;;;15.77;5.22;;;;;;;21.79;50.62;93691.00;5089555;28;20048;-86
2022/05/12 07:02:13;;;;;;;14.48;5.03;;;;;;;21.28;49.60;93696.09;5092879;28;20505;-86
2022/05/12 07:04:45;;;;;;;6.07;3.72;;;;;;;21.05;49.74;93695.59;5093151;28;20052;-87
2022/05/12 07:07:12;;;;;;;8.93;3.88;;;;;;;21.50;50.47;93689.78;5091785;28;20036;-85
2022/05/12 07:09:39;;;;;;;8.05;3.80;;;;;;;21.26;49.56;93689.56;5092575;28;20048;-85
2022/05/12 07:12:07;;;;;;;7.93;3.40;;;;;;;21.78;49.40;93689.44;5092664;28;20043;-85
2022/05/12 07:14:33;;;;;;;12.15;3.95;;;;;;;22.31;48.42;93694.13;5092681;28;20047;-85
2022/05/12 07:17:03;;;;;;;6.13;3.13;;;;;;;22.39;46.90;93675.25;5092732;28;20413;-86
2022/05/12 07:19:31;;;;;;;7.90;3.08;;;;;;;22.40;45.60;93689.13;5092515;28;20050;-86
2022/05/12 07:27:27;;;;;;;7.60;2.50;;;;;;;24.02;44.24;93684.72;5093301;28;19974;-85
2022/05/12 07:29:54;;;;;;;5.13;2.90;;;;;;;24.48;43.09;93682.53;5092320;28;20470;-86
2022/05/12 07:32:21;;;;;;;5.70;2.75;;;;;;;24.73;40.54;93670.09;5087208;28;20041;-86
2022/05/12 07:34:48;;;;;;;5.93;3.30;;;;;;;25.07;39.75;93676.91;5079392;28;20044;-85
2022/05/12 07:37:18;;;;;;;5.70;2.92;;;;;;;25.36;39.01;93672.44;5082708;28;20048;-86
2022/05/12 07:39:45;;;;;;;5.65;2.88;;;;;;;25.67;38.37;93666.63;5083759;28;20043;-86
2022/05/12 07:42:12;;;;;;;4.72;2.97;;;;;;;25.74;38.22;93650.47;5083747;28;20043;-86
2022/05/12 07:44:40;;;;;;;8.68;3.60;;;;;;;25.34;36.07;93667.50;5078557;28;20048;-85
2022/05/12 07:47:10;;;;;;;7.72;3.28;;;;;;;25.31;36.99;93657.56;5080083;28;20051;-87
2022/05/12 07:49:39;;;;;;;11.93;3.83;;;;;;;24.81;37.55;93668.66;5081692;28;20056;-87
2022/05/12 07:52:09;;;;;;;7.80;4.00;;;;;;;23.66;38.81;93634.56;5092100;28;20044;-88
2022/05/12 07:54:38;;;;;;;9.98;3.33;;;;;;;23.03;38.31;93632.59;5091813;28;20043;-87
2022/05/12 07:57:06;;;;;;;6.57;3.55;;;;;;;23.76;38.55;93671.16;5092216;28;20405;-85
2022/05/12 07:59:34;;;;;;;9.05;3.58;;;;;;;23.31;39.10;93676.59;5091718;28;20397;-87
2022/05/12 08:02:02;;;;;;;5.90;3.70;;;;;;;22.17;40.97;93675.63;5091936;28;20044;-86
2022/05/12 08:04:29;;;;;;;6.40;3.72;;;;;;;23.12;42.48;93658.97;5091574;28;20055;-85
2022/05/12 08:06:58;;;;;;;9.95;4.45;;;;;;;23.35;39.12;93656.66;5091773;28;20073;-84
2022/05/12 08:09:25;;;;;;;5.35;2.92;;;;;;;23.40;39.31;93661.84;5091504;28;20473;-86
2022/05/12 08:11:53;;;;;;;11.90;4.13;;;;;;;24.09;41.08;93662.63;5091629;28;20094;-87
2022/05/12 08:14:20;;;;;;;4.85;2.72;;;;;;;24.28;37.69;93670.50;5087780;28;20045;-87
2022/05/12 08:16:47;;;;;;;6.57;3.08;;;;;;;24.50;38.03;93648.13;5079779;28;20470;-85
2022/05/12 08:19:15;;;;;;;5.22;2.90;;;;;;;22.52;40.16;93662.59;5080798;28;20040;-81
2022/05/12 08:21:41;;;;;;;4.68;3.90;;;;;;;21.87;42.42;93661.69;5082039;28;20052;-83
2022/05/12 08:24:08;;;;;;;4.80;3.30;;;;;;;21.91;41.85;93661.91;5079016;28;20047;-88
2022/05/12 08:26:35;;;;;;;4.45;2.78;;;;;;;22.44;40.46;93650.88;5089884;28;20598;-89
2022/05/12 08:29:04;;;;;;;5.70;2.80;;;;;;;22.97;39.56;93659.91;5091520;28;20599;-86
2022/05/12 08:31:31;;;;;;;8.25;4.85;;;;;;;23.11;40.60;93656.63;5091434;28;20051;-86
2022/05/12 08:33:59;;;;;;;7.15;3.75;;;;;;;23.18;42.07;93663.09;5091256;28;20044;-88
2022/05/12 08:36:28;;;;;;;5.13;3.40;;;;;;;23.48;41.59;93663.09;5083925;28;20492;-87
2022/05/12 08:38:55;;;;;;;6.45;3.10;;;;;;;24.24;39.69;93661.63;5090488;28;20044;-88
2022/05/12 08:41:29;;;;;;;5.28;2.65;;;;;;;24.77;39.22;93654.53;5090542;28;20504;-87
2022/05/12 08:44:02;;;;;;;4.30;2.67;;;;;;;25.42;38.23;93658.16;5091406;28;20063;-87
2022/05/12 08:46:49;;;;;;;5.43;2.60;;;;;;;25.61;36.98;93633.63;5090528;28;20044;-88
2022/05/12 08:49:24;;;;;;;7.95;2.55;;;;;;;26.21;37.04;93649.47;5091058;28;20040;-86
2022/05/12 08:51:55;;;;;;;3.75;2.42;;;;;;;25.67;34.72;93650.84;5090605;28;20040;-86
2022/05/12 08:54:25;;;;;;;5.85;3.08;;;;;;;25.71;35.49;93657.09;5079743;28;20045;-87
2022/05/12 08:57:00;;;;;;;5.43;2.70;;;;;;;25.97;34.79;93659.19;5070815;28;20051;-86
2022/05/12 08:59:27;;;;;;;4.90;2.67;;;;;;;26.04;33.78;93661.41;5070851;28;20083;-87
2022/05/12 09:02:04;;;;;;;3.45;2.20;;;;;;;25.82;35.40;93659.53;5070677;28;20391;-88
2022/05/12 09:04:52;;;;;;;4.05;2.38;;;;;;;26.54;35.07;93671.16;5070571;28;20055;-85
2022/05/12 09:07:27;;;;;;;5.32;2.10;;;;;;;27.01;32.65;93661.38;5070771;28;20047;-88
2022/05/12 09:10:02;;;;;;;4.43;2.03;;;;;;;27.36;33.30;93656.25;5071161;28;20053;-89
2022/05/12 09:12:44;;;;;;;4.47;2.42;;;;;;;25.67;32.31;93653.50;5070166;28;20060;-89
2022/05/12 09:15:13;;;;;;;4.95;2.50;;;;;;;24.93;34.02;93663.75;5071035;28;20048;-86
2022/05/12 09:17:46;;;;;;;3.40;2.28;;;;;;;24.31;35.02;93667.31;5070723;28;20048;-88
2022/05/12 09:20:14;;;;;;;5.47;2.70;;;;;;;25.25;36.22;93653.47;5070892;28;20045;-88
2022/05/12 09:22:42;;;;;;;6.70;2.53;;;;;;;26.02;35.29;93659.06;5070837;28;20044;-89
2022/05/12 09:25:13;;;;;;;5.03;2.75;;;;;;;25.53;35.91;93657.94;5070127;28;20080;-88
2022/05/12 09:27:44;;;;;;;5.97;2.60;;;;;;;25.97;33.75;93651.28;5070956;28;20094;-87
2022/05/12 09:30:14;;;;;;;3.97;2.00;;;;;;;26.65;33.75;93663.78;5072172;28;20052;-87
2022/05/12 09:32:42;;;;;;;4.22;2.08;;;;;;;27.06;32.45;93663.88;5074265;28;20044;-89
2022/05/12 09:35:19;;;;;;;2.97;2.10;;;;;;;27.26;30.00;93659.16;5074299;28;20501;-89
2022/05/12 09:37:46;;;;;;;2.83;2.00;;;;;;;27.64;31.70;93666.63;5074286;28;20048;-89
2022/05/12 09:40:39;;;;;;;3.13;2.00;;;;;;;26.67;31.84;93658.97;5074460;28;20057;-90
2022/05/12 09:43:24;;;;;;;4.20;2.08;;;;;;;27.13;33.01;93652.91;5071019;28;20074;-90
2022/05/12 09:46:20;;;;;;;4.25;2.45;;;;;;;27.50;31.65;93661.44;5073744;28;20054;-89
2022/05/12 09:48:50;;;;;;;5.07;2.45;;;;;;;26.59;32.11;93649.16;5056930;28;20424;-85
2022/05/12 09:51:35;;;;;;;2.95;2.05;;;;;;;26.06;34.89;93656.63;5073813;28;20082;-85
2022/05/12 09:54:23;;;;;;;3.33;2.10;;;;;;;26.24;34.28;93651.56;5073812;28;20044;-89
2022/05/12 09:57:14;;;;;;;4.03;2.30;;;;;;;26.95;34.42;93650.19;5074094;28;20048;-86
2022/05/12 09:59:42;;;;;;;3.08;2.03;;;;;;;27.47;32.09;93646.19;5069678;28;20080;-88
2022/05/12 10:07:53;;;;;;;5.93;2.38;;;;;;;27.83;32.98;93639.16;5073889;28;20041;-85
2022/05/12 10:08:19;;;;;;;4.43;2.10;;;;;;;27.65;33.47;93630.44;5073783;28;20410;-87
2022/05/12 10:10:50;;;;;;;4.35;2.17;;;;;;;27.90;32.38;93631.56;5073975;28;20383;-89
2022/05/12 10:13:28;;;;;;;6.55;2.83;;;;;;;26.21;34.97;93637.09;5082245;28;20395;-85
2022/05/12 10:15:56;;;;;;;3.85;2.38;;;;;;;26.89;34.69;93632.91;5087679;28;20379;-85
2022/05/12 10:18:31;;;;;;;4.15;2.25;;;;;;;27.55;32.95;93631.47;5081180;28;20475;-88
2022/05/12 10:21:13;;;;;;;4.45;2.65;;;;;;;28.07;30.03;93624.75;5083382;28;20047;-89
2022/05/12 10:23:54;;;;;;;4.72;2.08;;;;;;;28.26;30.24;93622.59;5089647;28;20051;-90
2022/05/12 10:26:37;;;;;;;2.58;1.92;;;;;;;27.37;30.15;93626.16;5093959;28;20048;-90
2022/05/12 10:29:14;;;;;;;2.85;1.67;;;;;;;26.63;32.20;93617.72;5093823;28;20044;-92
2022/05/12 10:31:46;;;;;;;3.28;2.33;;;;;;;26.81;32.64;93618.59;5073268;28;20044;-93
2022/05/12 10:34:33;;;;;;;3.05;2.00;;;;;;;26.49;32.85;93604.63;5088406;28;20047;-88
2022/05/12 10:37:08;;;;;;;3.63;2.15;;;;;;;26.98;32.69;93611.91;5093452;28;20044;-86
2022/05/12 10:39:42;;;;;;;;;;;;;;;27.07;30.66;93615.31;5093885;28;20047;-90
2022/05/12 10:42:23;;;;;;;3.78;1.90;;;;;;;26.86;32.25;93615.06;5093168;28;20269;-92
2022/05/12 10:45:05;;;;;;;3.33;1.90;;;;;;;27.20;31.34;93603.91;5093234;28;20044;-92
2022/05/12 10:47:57;;;;;;;4.82;2.00;;;;;;;27.36;31.17;93606.16;5094028;28;20048;-92
2022/05/12 10:50:30;;;;;;;3.60;1.60;;;;;;;27.99;31.18;93597.25;5086948;28;20406;-89
2022/05/12 10:53:06;;;;;;;3.17;2.08;;;;;;;28.20;29.81;93597.41;5072052;28;20040;-89
2022/05/12 10:55:40;;;;;;;3.35;1.73;;;;;;;26.85;31.46;93589.78;5072830;28;20051;-89
2022/05/12 10:58:26;;;;;;;3.40;2.28;;;;;;;26.81;30.76;93600.16;5072664;28;20040;-90
2022/05/12 11:01:18;;;;;;;4.72;2.83;;;;;;;27.67;31.72;93589.47;5072562;28;20040;-88
2022/05/12 11:03:53;;;;;;;3.50;2.03;;;;;;;28.10;29.84;93595.09;5073491;28;20045;-87
2022/05/12 11:06:25;;;;;;;5.20;2.33;;;;;;;28.60;30.44;93579.81;5072926;28;20040;-89
2022/05/12 11:08:57;;;;;;;4.10;2.35;;;;;;;29.06;29.95;93580.16;5072535;28;20040;-88
2022/05/12 11:11:29;;;;;;;2.85;1.80;;;;;;;29.45;29.88;93582.78;5072266;28;20052;-90
2022/05/12 11:14:05;;;;;;;4.22;1.60;;;;;;;29.33;27.56;93576.31;5073865;28;20399;-89
2022/05/12 11:16:37;;;;;;;3.47;2.20;;;;;;;28.41;29.74;93557.94;5072749;28;20045;-88
2022/05/12 11:19:10;;;;;;;5.05;3.08;;;;;;;27.45;29.56;93563.97;5072585;28;20053;-89
2022/05/12 11:21:43;;;;;;;4.60;2.33;;;;;;;28.45;31.22;93559.97;5072335;28;20048;-85
2022/05/12 11:24:23;;;;;;;3.83;2.03;;;;;;;29.14;29.75;93563.47;5072155;28;20048;-89
2022/05/12 11:27:10;;;;;;;2.75;1.77;;;;;;;29.46;28.89;93563.16;5072241;28;20487;-90
2022/05/12 11:29:48;;;;;;;4.80;2.40;;;;;;;29.62;29.30;93542.19;5072000;28;20037;-89
2022/05/12 11:32:34;;;;;;;3.65;1.85;;;;;;;30.00;27.80;93554.53;5071912;28;20045;-89
2022/05/12 11:35:05;;;;;;;5.68;2.42;;;;;;;30.34;26.66;93540.53;5072670;28;20044;-84
2022/05/12 11:37:53;;;;;;;3.83;2.35;;;;;;;30.16;27.15;93546.00;5072274;28;20043;-89
2022/05/12 11:40:53;;;;;;;3.60;1.70;;;;;;;30.43;27.22;93535.94;5071892;28;20083;-88
2022/05/12 11:46:49;;;;;;;4.93;1.77;;;;;;;30.26;27.29;93535.00;5071653;28;20086;-87
2022/05/12 11:49:32;;;;;;;4.95;2.00;;;;;;;29.54;28.16;93529.81;5072059;28;20052;-89
2022/05/12 11:52:11;;;;;;;2.95;2.00;;;;;;;30.18;27.87;93522.66;5071265;28;20102;-91
2022/05/12 11:54:40;;;;;;;4.07;2.03;;;;;;;29.58;26.12;93515.59;5070060;28;20048;-88
2022/05/12 11:57:22;;;;;;;5.10;1.90;;;;;;;30.12;26.43;93513.31;5071532;28;20051;-84
2022/05/12 11:59:51;;;;;;;2.97;1.98;;;;;;;30.58;26.93;93510.69;5071811;28;20041;-86
2022/05/12 12:02:40;;;;;;;2.95;1.42;;;;;;;30.76;26.56;93505.19;5071613;28;20048;-85
2022/05/12 12:05:10;;;;;;;4.13;2.22;;;;;;;30.80;27.35;93479.56;5071302;28;20052;-88